Time;durP1;ratioP1;P1;durP2;ratioP2;P2;SDS_P1;SDS_P2;PMS_P1;PMS_P2;Temp;Humidity;BMP_temperature;BMP_pressure;BME280_temperature;BME280_humidity;BME280_pressure;Samples;Min_cycle;Max_cycle;Signal;HPM_P1;HPM_P2
2022/06/21 00:01:32;;;;;;;6.60;4.27;;;12.00;99.90;;;;;;5040058;28;20171;-83
2022/06/21 00:03:58;;;;;;;7.87;4.73;;;11.90;99.90;;;;;;5055621;28;20237;-84
2022/06/21 00:06:25;;;;;;;7.22;4.50;;;11.80;99.90;;;;;;5055252;28;20643;-83
2022/06/21 00:08:52;;;;;;;7.95;4.25;;;11.80;99.90;;;;;;5054347;28;20186;-83
2022/06/21 00:11:23;;;;;;;10.07;4.70;;;11.80;99.90;;;;;;5054584;28;20201;-83
2022/06/21 00:13:49;;;;;;;7.10;4.73;;;11.70;99.90;;;;;;5038788;28;20195;-83
2022/06/21 00:16:16;;;;;;;6.60;4.38;;;11.70;99.90;;;;;;5055035;28;20554;-82
2022/06/21 00:18:44;;;;;;;6.77;4.57;;;11.80;99.90;;;;;;5054683;28;20182;-82
2022/06/21 00:21:23;;;;;;;7.70;4.57;;;11.80;99.90;;;;;;5055185;28;20213;-82
2022/06/21 00:23:50;;;;;;;6.30;4.60;;;11.70;99.90;;;;;;5039244;28;20190;-82
2022/06/21 00:26:17;;;;;;;6.80;4.50;;;11.70;99.90;;;;;;5038722;28;20179;-82
2022/06/21 00:28:44;;;;;;;6.80;4.97;;;11.70;99.90;;;;;;5054115;28;20187;-83
2022/06/21 00:31:31;;;;;;;6.30;4.90;;;11.60;99.90;;;;;;5053779;28;20171;-83
2022/06/21 00:33:59;;;;;;;6.63;4.63;;;11.70;99.90;;;;;;5054877;28;20686;-83
2022/06/21 00:36:29;;;;;;;8.83;4.77;;;11.60;99.90;;;;;;5060592;28;20361;-82
2022/06/21 00:38:57;;;;;;;5.20;4.60;;;11.70;99.90;;;;;;5062701;28;20186;-82
2022/06/21 00:41:38;;;;;;;7.10;5.20;;;11.60;99.90;;;;;;5052614;28;20175;-82
2022/06/21 00:44:08;;;;;;;8.03;5.03;;;11.60;99.90;;;;;;5052828;28;20198;-83
2022/06/21 00:46:46;;;;;;;10.50;5.13;;;11.60;99.90;;;;;;5037988;28;20194;-83
2022/06/21 00:49:39;;;;;;;5.57;4.83;;;11.50;99.90;;;;;;5052480;28;20171;-83
2022/06/21 00:52:22;;;;;;;7.63;4.40;;;11.50;99.90;;;;;;5037119;28;20170;-83
2022/06/21 00:55:02;;;;;;;4.60;4.20;;;11.50;99.90;;;;;;5035827;28;20206;-83
2022/06/21 00:57:39;;;;;;;4.83;4.17;;;11.50;99.90;;;;;;5055080;28;20198;-83
2022/06/21 01:00:34;;;;;;;4.40;4.00;;;11.50;99.90;;;;;;5039543;28;20170;-83
2022/06/21 01:03:04;;;;;;;4.53;4.03;;;11.40;99.90;;;;;;5032797;28;20199;-83
2022/06/21 01:05:33;;;;;;;4.60;4.20;;;11.40;99.90;;;;;;5056794;28;20668;-84
2022/06/21 01:07:59;;;;;;;5.97;4.50;;;11.30;99.90;;;;;;5056348;28;20553;-83
2022/06/21 01:10:26;;;;;;;5.73;4.10;;;11.40;99.90;;;;;;5056114;28;20179;-83
2022/06/21 01:12:58;;;;;;;8.53;4.60;;;11.30;99.90;;;;;;5056201;28;20210;-83
2022/06/21 01:15:29;;;;;;;4.90;4.50;;;11.30;99.90;;;;;;5040693;28;20190;-83
2022/06/21 01:17:58;;;;;;;5.27;4.50;;;11.30;99.90;;;;;;5053422;28;20178;-83
2022/06/21 01:20:26;;;;;;;4.80;4.10;;;11.30;99.90;;;;;;5054145;28;20181;-83
2022/06/21 01:23:33;;;;;;;4.87;4.27;;;11.20;99.90;;;;;;5053288;28;20186;-83
2022/06/21 01:26:26;;;;;;;4.70;4.17;;;11.10;99.90;;;;;;5050428;28;20242;-83
2022/06/21 01:28:53;;;;;;;4.10;3.70;;;11.10;99.90;;;;;;5052521;28;20178;-83
2022/06/21 01:31:19;;;;;;;3.90;3.60;;;11.00;99.90;;;;;;5052666;28;20179;-83
2022/06/21 01:33:45;;;;;;;5.03;4.50;;;10.90;99.90;;;;;;5052808;28;20194;-83
2022/06/21 01:36:28;;;;;;;5.20;4.50;;;10.90;99.90;;;;;;5037419;28;20702;-83
2022/06/21 01:38:59;;;;;;;5.70;4.30;;;10.90;99.90;;;;;;5038154;28;20182;-82
2022/06/21 01:41:32;;;;;;;6.43;4.10;;;10.90;99.90;;;;;;5053375;28;20167;-82
2022/06/21 01:44:02;;;;;;;4.90;4.27;;;10.90;99.90;;;;;;5053697;28;20179;-82
2022/06/21 01:46:30;;;;;;;8.73;4.47;;;10.90;99.90;;;;;;5054290;28;20175;-82
2022/06/21 01:49:01;;;;;;;4.93;4.43;;;10.90;99.90;;;;;;5054797;28;20647;-82
2022/06/21 01:51:38;;;;;;;5.83;4.40;;;10.90;99.90;;;;;;5054257;28;20322;-82
2022/06/21 01:54:08;;;;;;;4.40;3.97;;;10.90;99.90;;;;;;5054512;28;20304;-84
2022/06/21 01:56:38;;;;;;;5.37;4.30;;;10.90;99.90;;;;;;5040824;28;20223;-83
2022/06/21 01:59:13;;;;;;;7.17;4.80;;;10.90;99.90;;;;;;5055777;28;20636;-83
2022/06/21 02:01:53;;;;;;;6.87;4.53;;;10.90;99.90;;;;;;5039381;28;20175;-83
2022/06/21 02:04:24;;;;;;;5.97;4.40;;;10.80;99.90;;;;;;5055853;28;20205;-83
2022/06/21 02:06:51;;;;;;;10.00;4.70;;;10.80;99.90;;;;;;5052992;28;20693;-83
2022/06/21 02:09:31;;;;;;;5.73;4.70;;;10.80;99.90;;;;;;5036223;28;20179;-83
2022/06/21 02:12:11;;;;;;;6.87;4.87;;;10.70;99.90;;;;;;5052742;28;20262;-87
2022/06/21 02:14:41;;;;;;;7.50;5.13;;;10.80;99.90;;;;;;5051762;28;20207;-86
2022/06/21 02:17:18;;;;;;;5.20;4.53;;;10.70;99.90;;;;;;5036325;28;20178;-86
2022/06/21 02:19:46;;;;;;;6.13;4.87;;;10.60;99.90;;;;;;5051798;28;20175;-86
2022/06/21 02:22:20;;;;;;;5.57;4.90;;;10.60;99.90;;;;;;5051967;28;20179;-86
2022/06/21 02:24:46;;;;;;;5.93;4.57;;;10.60;99.90;;;;;;5051973;28;20256;-86
2022/06/21 02:27:17;;;;;;;6.40;4.70;;;10.60;99.90;;;;;;5052351;28;20183;-86
2022/06/21 02:29:47;;;;;;;5.27;4.70;;;10.60;99.90;;;;;;5052179;28;20218;-86
2022/06/21 02:32:37;;;;;;;5.67;4.37;;;10.60;99.90;;;;;;5051703;28;20774;-86
2022/06/21 02:35:27;;;;;;;6.83;4.40;;;10.40;99.90;;;;;;5036521;28;20195;-86
2022/06/21 02:37:57;;;;;;;5.07;4.60;;;10.30;99.90;;;;;;5057227;28;20183;-86
2022/06/21 02:40:27;;;;;;;6.53;4.53;;;10.20;99.90;;;;;;5059054;28;20183;-85
2022/06/21 02:42:57;;;;;;;5.50;4.27;;;10.20;99.90;;;;;;5059228;28;20182;-85
2022/06/21 02:45:47;;;;;;;6.43;4.60;;;10.10;99.90;;;;;;5058476;28;20199;-85
2022/06/21 02:48:18;;;;;;;7.20;4.80;;;10.20;99.90;;;;;;5058506;28;20167;-86
2022/06/21 02:50:57;;;;;;;5.53;4.40;;;10.10;99.90;;;;;;5058009;28;20237;-86
2022/06/21 02:53:30;;;;;;;5.80;4.70;;;10.10;99.90;;;;;;5042582;28;20652;-85
2022/06/21 02:56:23;;;;;;;6.37;4.70;;;10.00;99.90;;;;;;5055290;28;20215;-87
2022/06/21 02:58:52;;;;;;;5.50;4.73;;;10.00;99.90;;;;;;5055842;28;20632;-83
2022/06/21 03:01:41;;;;;;;6.57;4.63;;;9.80;99.90;;;;;;5040989;28;20210;-83
2022/06/21 03:04:17;;;;;;;6.13;4.93;;;9.80;99.90;;;;;;5054659;28;20210;-84
2022/06/21 03:06:43;;;;;;;5.27;4.70;;;9.80;99.90;;;;;;5039366;28;20151;-84
2022/06/21 03:09:15;;;;;;;7.53;5.57;;;9.80;99.90;;;;;;5054447;28;20564;-82
2022/06/21 03:11:44;;;;;;;6.17;5.20;;;9.70;99.90;;;;;;5054636;28;20175;-82
2022/06/21 03:14:16;;;;;;;5.03;4.53;;;9.80;99.90;;;;;;5054457;28;20271;-82
2022/06/21 03:16:45;;;;;;;7.27;4.87;;;9.80;99.90;;;;;;5054263;28;20186;-82
2022/06/21 03:19:22;;;;;;;7.33;4.80;;;9.80;99.90;;;;;;5039466;28;20183;-82
2022/06/21 03:21:49;;;;;;;5.67;5.13;;;9.80;99.90;;;;;;5042655;28;20179;-86
2022/06/21 03:24:20;;;;;;;5.90;5.30;;;10.00;99.90;;;;;;5059105;28;20198;-86
2022/06/21 03:27:05;;;;;;;10.60;6.57;;;10.10;99.90;;;;;;5058097;28;20175;-86
2022/06/21 03:29:32;;;;;;;7.90;5.93;;;10.00;99.90;;;;;;5057576;28;20266;-86
2022/06/21 03:31:59;;;;;;;11.70;6.53;;;10.00;99.90;;;;;;5057495;28;20186;-86
2022/06/21 03:34:25;;;;;;;7.20;6.17;;;10.00;99.90;;;;;;5057232;28;20214;-86
2022/06/21 03:36:51;;;;;;;9.83;6.23;;;10.00;99.90;;;;;;5058934;28;20210;-86
2022/06/21 03:42:15;;;;;;;11.83;5.83;;;10.00;99.90;;;;;;5042446;28;20214;-86
2022/06/21 03:45:06;;;;;;;9.87;7.13;;;10.10;99.90;;;;;;5059113;28;20209;-85
2022/06/21 03:47:40;;;;;;;9.90;6.67;;;10.10;99.90;;;;;;5031069;28;20194;-83
2022/06/21 03:50:16;;;;;;;7.13;6.40;;;10.00;99.90;;;;;;5052855;28;20178;-82
2022/06/21 03:52:57;;;;;;;9.27;6.60;;;9.90;99.90;;;;;;5053923;28;20203;-83
2022/06/21 03:55:47;;;;;;;8.33;5.67;;;9.70;99.90;;;;;;5053978;28;20221;-83
2022/06/21 03:58:32;;;;;;;8.80;5.73;;;9.70;99.90;;;;;;5053841;28;20182;-82
2022/06/21 04:01:16;;;;;;;10.10;6.07;;;9.70;99.90;;;;;;5053870;28;20211;-82
2022/06/21 04:03:52;;;;;;;9.13;6.50;;;9.70;99.90;;;;;;5054034;28;20179;-82
2022/06/21 04:06:46;;;;;;;10.23;6.50;;;9.60;99.90;;;;;;5053909;28;20258;-83
2022/06/21 04:09:58;;;;;;;7.67;6.33;;;9.70;99.90;;;;;;5054241;28;20182;-82
2022/06/21 04:12:28;;;;;;;8.27;7.03;;;9.70;99.90;;;;;;5030773;28;20240;-83
2022/06/21 04:15:10;;;;;;;7.63;6.83;;;9.70;99.90;;;;;;5054151;28;20227;-84
2022/06/21 04:17:49;;;;;;;9.27;7.20;;;9.70;99.90;;;;;;5054405;28;20171;-83
2022/06/21 04:20:44;;;;;;;8.20;6.03;;;9.70;99.90;;;;;;5038216;28;20164;-83
2022/06/21 04:23:20;;;;;;;11.83;6.60;;;9.80;99.90;;;;;;5016781;28;20733;-84
2022/06/21 04:26:17;;;;;;;9.17;6.60;;;9.90;99.90;;;;;;5053817;28;20290;-83
2022/06/21 04:28:50;;;;;;;11.80;7.47;;;9.90;99.90;;;;;;5053991;28;20229;-83
2022/06/21 04:31:34;;;;;;;9.30;6.73;;;9.90;99.90;;;;;;5038123;28;20195;-83
2022/06/21 04:34:15;;;;;;;11.83;7.30;;;9.90;99.90;;;;;;5054087;28;20203;-83
2022/06/21 04:36:57;;;;;;;10.70;7.37;;;9.90;99.90;;;;;;5055060;28;20589;-82
2022/06/21 04:39:33;;;;;;;11.90;7.90;;;10.00;99.90;;;;;;5053874;28;20178;-83
2022/06/21 04:42:08;;;;;;;14.73;7.50;;;9.90;99.90;;;;;;5038542;28;20185;-81
2022/06/21 04:44:52;;;;;;;11.20;7.60;;;9.90;99.90;;;;;;5053746;28;20206;-81
2022/06/21 04:47:28;;;;;;;11.90;7.33;;;10.00;99.90;;;;;;5054587;28;20182;-84
2022/06/21 04:50:02;;;;;;;10.57;7.93;;;10.00;99.90;;;;;;5038966;28;20171;-83
2022/06/21 04:52:54;;;;;;;12.60;7.37;;;10.00;99.90;;;;;;5038572;28;20246;-82
2022/06/21 04:55:28;;;;;;;15.07;8.47;;;10.20;99.90;;;;;;5032789;28;20254;-82
2022/06/21 04:57:54;;;;;;;11.83;8.33;;;10.40;99.90;;;;;;5037770;28;20184;-83
2022/06/21 05:00:21;;;;;;;13.93;9.93;;;10.60;99.90;;;;;;5055490;28;20167;-83
2022/06/21 05:02:54;;;;;;;14.83;9.90;;;10.60;99.90;;;;;;5039096;28;20182;-80
2022/06/21 05:05:29;;;;;;;17.43;9.37;;;10.70;99.90;;;;;;5053034;28;20574;-80
2022/06/21 05:08:04;;;;;;;14.00;8.50;;;10.70;99.90;;;;;;5051397;28;20167;-80
2022/06/21 05:10:37;;;;;;;9.80;7.63;;;10.80;99.90;;;;;;5051606;28;20224;-80
2022/06/21 05:13:11;;;;;;;9.57;7.23;;;10.90;99.90;;;;;;5035813;28;20203;-80
2022/06/21 05:15:40;;;;;;;11.00;7.20;;;10.90;99.90;;;;;;5050921;28;20572;-80
2022/06/21 05:18:13;;;;;;;9.10;7.03;;;11.00;99.90;;;;;;5051083;28;20167;-80
2022/06/21 05:20:49;;;;;;;8.20;6.87;;;11.20;99.90;;;;;;5053750;28;20182;-80
2022/06/21 05:23:17;;;;;;;11.07;8.07;;;11.20;99.90;;;;;;5051619;28;20676;-83
2022/06/21 05:25:44;;;;;;;11.73;7.47;;;11.40;99.90;;;;;;5052272;28;20219;-83
2022/06/21 05:28:36;;;;;;;9.50;7.77;;;11.40;99.90;;;;;;5051395;28;20273;-83
2022/06/21 05:31:24;;;;;;;9.77;7.50;;;11.50;99.90;;;;;;5052663;28;20186;-81
2022/06/21 05:34:26;;;;;;;10.70;6.90;;;11.50;99.90;;;;;;5039716;28;20222;-81
2022/06/21 05:37:06;;;;;;;14.73;7.70;;;11.70;99.90;;;;;;5051542;28;20217;-82
2022/06/21 05:39:40;;;;;;;12.30;7.67;;;11.70;99.90;;;;;;5051564;28;20170;-83
2022/06/21 05:42:11;;;;;;;13.10;7.80;;;11.80;99.90;;;;;;5036440;28;20255;-83
2022/06/21 05:44:46;;;;;;;10.73;7.10;;;11.90;99.90;;;;;;5051952;28;20203;-82
2022/06/21 05:47:40;;;;;;;10.73;7.40;;;12.00;99.90;;;;;;5051515;28;20624;-82
2022/06/21 05:50:10;;;;;;;10.23;7.70;;;12.10;99.90;;;;;;5029320;28;20187;-82
2022/06/21 05:52:41;;;;;;;11.23;7.40;;;12.20;99.90;;;;;;5051992;28;20178;-82
2022/06/21 05:55:11;;;;;;;8.53;6.70;;;12.30;99.90;;;;;;5051279;28;20265;-82
2022/06/21 05:57:56;;;;;;;11.73;7.63;;;12.40;99.90;;;;;;5051084;28;20273;-82
2022/06/21 06:00:39;;;;;;;10.77;6.83;;;12.50;99.90;;;;;;5051294;28;20177;-82
2022/06/21 06:03:12;;;;;;;10.67;7.13;;;12.60;99.90;;;;;;5036061;28;20167;-82
2022/06/21 06:05:38;;;;;;;14.27;7.20;;;12.70;99.90;;;;;;5050557;28;20210;-82
2022/06/21 06:08:09;;;;;;;10.00;7.28;;;12.80;99.90;;;;;;5035241;28;20222;-82
2022/06/21 06:10:38;;;;;;;10.37;7.30;;;12.90;99.90;;;;;;5050431;28;20644;-82
2022/06/21 06:13:27;;;;;;;11.53;7.00;;;13.00;99.90;;;;;;5036874;28;20206;-82
2022/06/21 06:15:57;;;;;;;11.18;6.63;;;13.10;99.90;;;;;;5037590;28;20301;-82
2022/06/21 06:18:48;;;;;;;12.25;6.70;;;13.20;99.90;;;;;;5040749;28;20262;-82
2022/06/21 06:21:24;;;;;;;10.32;6.00;;;13.30;99.90;;;;;;5038672;28;20168;-83
2022/06/21 06:23:54;;;;;;;8.90;5.95;;;13.40;99.90;;;;;;5054988;28;20531;-82
2022/06/21 06:26:24;;;;;;;11.38;6.70;;;13.50;99.90;;;;;;5039665;28;20163;-83
2022/06/21 06:29:22;;;;;;;8.48;5.63;;;13.60;99.90;;;;;;5055012;28;20171;-82
2022/06/21 06:32:12;;;;;;;7.18;6.00;;;13.70;99.90;;;;;;5055331;28;20574;-84
2022/06/21 06:34:43;;;;;;;9.18;6.15;;;13.80;99.90;;;;;;5055067;28;20219;-83
2022/06/21 06:37:31;;;;;;;8.25;5.88;;;13.90;99.90;;;;;;5038937;28;20167;-83
2022/06/21 06:39:58;;;;;;;11.38;6.13;;;14.10;99.90;;;;;;5056024;28;20668;-83
2022/06/21 06:42:28;;;;;;;12.30;6.18;;;14.10;99.90;;;;;;5056314;28;20183;-83
2022/06/21 06:44:58;;;;;;;9.80;5.13;;;14.20;99.90;;;;;;5055488;28;20195;-83
2022/06/21 06:47:31;;;;;;;7.55;5.38;;;14.30;99.90;;;;;;5055968;28;20655;-83
2022/06/21 06:50:23;;;;;;;7.15;5.00;;;14.40;99.90;;;;;;5055428;28;20700;-83
2022/06/21 06:53:42;;;;;;;7.68;5.30;;;14.50;99.90;;;;;;5039384;28;20234;-83
2022/06/21 06:56:16;;;;;;;6.45;4.32;;;14.70;99.90;;;;;;4998891;28;20296;-84
2022/06/21 06:58:48;;;;;;;6.85;4.47;;;14.70;99.90;;;;;;5000084;28;20229;-83
2022/06/21 07:01:18;;;;;;;8.35;4.40;;;14.80;99.90;;;;;;5020659;28;20187;-83
2022/06/21 07:04:02;;;;;;;6.10;4.50;;;14.90;99.90;;;;;;5054765;28;20183;-84
2022/06/21 07:06:47;;;;;;;8.30;4.38;;;15.00;99.90;;;;;;5054478;28;20175;-84
2022/06/21 07:09:32;;;;;;;7.18;4.60;;;15.10;99.90;;;;;;5054535;28;20175;-84
2022/06/21 07:12:11;;;;;;;6.78;4.28;;;15.20;99.90;;;;;;5054584;28;20536;-84
2022/06/21 07:14:38;;;;;;;10.60;4.03;;;15.30;99.90;;;;;;5039208;28;20207;-84
2022/06/21 07:17:14;;;;;;;7.07;4.18;;;15.30;99.90;;;;;;5054620;28;20624;-84
2022/06/21 07:19:40;;;;;;;6.88;4.00;;;15.30;99.90;;;;;;5055171;28;20170;-83
2022/06/21 07:22:18;;;;;;;6.35;4.35;;;15.40;99.90;;;;;;5056065;28;20316;-82
2022/06/21 07:25:24;;;;;;;7.15;3.28;;;15.50;99.90;;;;;;5055681;28;20580;-83
2022/06/21 07:27:55;;;;;;;8.02;3.88;;;15.50;99.90;;;;;;5055452;28;20179;-82
2022/06/21 07:30:26;;;;;;;10.85;4.05;;;15.60;99.90;;;;;;5054236;28;20186;-82
2022/06/21 07:32:57;;;;;;;8.52;3.50;;;15.70;99.90;;;;;;5055191;28;20195;-83
2022/06/21 07:35:29;;;;;;;7.10;3.63;;;15.70;99.90;;;;;;5055676;28;20198;-83
2022/06/21 07:38:20;;;;;;;8.57;3.88;;;15.80;99.90;;;;;;5056946;28;20535;-83
2022/06/21 07:40:52;;;;;;;9.80;3.63;;;15.90;99.90;;;;;;5056483;28;20558;-83
2022/06/21 07:43:41;;;;;;;6.68;3.67;;;16.00;99.90;;;;;;5040975;28;20174;-83
2022/06/21 07:46:11;;;;;;;3.38;3.08;;;16.10;99.90;;;;;;5057753;28;20197;-83
2022/06/21 07:49:13;;;;;;;6.40;3.40;;;16.20;99.90;;;;;;5055008;28;20179;-83
2022/06/21 07:51:47;;;;;;;5.82;3.00;;;16.30;99.90;;;;;;5053455;28;20636;-83
2022/06/21 07:54:24;;;;;;;4.47;2.83;;;16.30;99.90;;;;;;5036659;28;20245;-83
2022/06/21 07:57:03;;;;;;;5.45;3.13;;;16.40;99.90;;;;;;5054344;28;20689;-83
2022/06/21 07:59:43;;;;;;;7.43;3.00;;;16.50;99.90;;;;;;5055635;28;20222;-83
2022/06/21 08:08:06;;;;;;;4.40;2.95;;;16.60;99.90;;;;;;5044408;28;20167;-83
2022/06/21 08:10:45;;;;;;;3.17;2.85;;;16.70;99.90;;;;;;5057680;28;20727;-83
2022/06/21 08:13:11;;;;;;;5.38;2.92;;;16.70;99.90;;;;;;5056803;28;20569;-83
2022/06/21 08:15:45;;;;;;;6.22;2.80;;;16.90;99.90;;;;;;5058322;28;20197;-83
2022/06/21 08:18:27;;;;;;;4.50;2.60;;;17.00;99.90;;;;;;5056999;28;20168;-83
2022/06/21 08:21:06;;;;;;;5.65;3.03;;;17.10;99.90;;;;;;5044051;28;20166;-83
2022/06/21 08:24:00;;;;;;;3.63;3.00;;;17.20;99.90;;;;;;5059272;28;20181;-83
2022/06/21 08:26:49;;;;;;;5.75;3.13;;;17.30;99.90;;;;;;5059452;28;20171;-83
2022/06/21 08:29:22;;;;;;;5.47;2.83;;;17.50;99.90;;;;;;5059444;28;20179;-83
2022/06/21 08:31:58;;;;;;;5.45;2.92;;;17.60;99.90;;;;;;5058677;28;20659;-83
2022/06/21 08:34:50;;;;;;;5.05;3.20;;;17.60;99.90;;;;;;5059249;28;20214;-83
2022/06/21 08:37:52;;;;;;;6.82;2.92;;;17.70;99.90;;;;;;5041229;28;20521;-83
2022/06/21 08:40:53;;;;;;;6.63;3.15;;;17.60;99.90;;;;;;5021334;28;20235;-83
2022/06/21 08:43:43;;;;;;;3.83;2.92;;;17.60;99.90;;;;;;5037136;28;20210;-83
2022/06/21 08:46:46;;;;;;;7.93;3.20;;;17.80;99.90;;;;;;5037262;28;20198;-83
2022/06/21 08:49:21;;;;;;;5.95;3.05;;;17.80;99.90;;;;;;5053054;28;20189;-83
2022/06/21 08:52:15;;;;;;;6.80;3.40;;;17.90;99.90;;;;;;5053221;28;20182;-83
2022/06/21 08:54:51;;;;;;;4.00;2.60;;;18.10;99.90;;;;;;5055748;28;20652;-83
2022/06/21 08:57:26;;;;;;;5.57;2.85;;;18.30;99.90;;;;;;5055228;28;20171;-83
2022/06/21 09:00:08;;;;;;;8.07;3.45;;;18.50;99.90;;;;;;5054644;28;20205;-83
2022/06/21 09:03:03;;;;;;;7.03;3.28;;;18.50;99.90;;;;;;5053378;28;20175;-83
2022/06/21 09:05:40;;;;;;;3.65;2.70;;;18.30;99.90;;;;;;5037153;28;20682;-83
2022/06/21 09:08:35;;;;;;;7.40;3.75;;;18.40;99.90;;;;;;5055149;28;20175;-83
2022/06/21 09:11:19;;;;;;;6.68;3.38;;;18.50;99.90;;;;;;5032687;28;20622;-83
2022/06/21 09:13:53;;;;;;;4.95;2.83;;;18.60;99.90;;;;;;5038147;28;20191;-84
2022/06/21 09:16:36;;;;;;;4.43;2.95;;;19.00;99.90;;;;;;5052674;28;20171;-83
2022/06/21 09:19:43;;;;;;;5.82;2.78;;;19.30;99.90;;;;;;5037334;28;20237;-83
2022/06/21 09:22:26;;;;;;;4.57;2.80;;;19.70;99.90;;;;;;5052867;28;20170;-83
2022/06/21 09:24:58;;;;;;;6.00;3.15;;;20.00;99.90;;;;;;5051679;28;20195;-83
2022/06/21 09:27:50;;;;;;;5.80;3.28;;;20.30;99.90;;;;;;5052752;28;20178;-82
2022/06/21 09:30:23;;;;;;;4.00;2.78;;;20.00;99.90;;;;;;5037219;28;20160;-81
2022/06/21 09:33:24;;;;;;;5.70;3.28;;;20.30;99.90;;;;;;5051736;28;20199;-81
2022/06/21 09:35:56;;;;;;;4.43;2.88;;;20.60;99.90;;;;;;4985444;28;20299;-83
2022/06/21 09:38:52;;;;;;;5.90;2.95;;;20.90;99.90;;;;;;5051806;28;20529;-82
2022/06/21 09:41:40;;;;;;;5.32;2.78;;;21.10;99.90;;;;;;5051196;28;20174;-82
2022/06/21 09:44:26;;;;;;;5.97;2.75;;;21.10;99.90;;;;;;5051069;28;20201;-83
2022/06/21 09:47:10;;;;;;;4.53;2.78;;;21.00;99.90;;;;;;5050594;28;20545;-83
2022/06/21 09:49:41;;;;;;;5.78;2.75;;;20.90;99.90;;;;;;5051704;28;20179;-83
2022/06/21 09:52:26;;;;;;;4.57;2.55;;;20.90;99.90;;;;;;5051863;28;20224;-83
2022/06/21 09:55:11;;;;;;;6.47;2.75;;;21.20;99.90;;;;;;5051040;28;20214;-83
2022/06/21 09:58:05;;;;;;;5.35;2.88;;;21.20;99.90;;;;;;5036984;28;20163;-83
2022/06/21 10:00:45;;;;;;;3.17;2.20;;;21.10;99.90;;;;;;5052634;28;20175;-83
2022/06/21 10:03:18;;;;;;;6.60;2.47;;;21.30;99.90;;;;;;5035989;28;20195;-83
2022/06/21 10:06:14;;;;;;;4.15;2.35;;;21.40;99.90;;;;;;5050672;28;20249;-83
2022/06/21 10:09:03;;;;;;;3.88;2.38;;;21.50;99.90;;;;;;5051279;28;20183;-84
2022/06/21 10:12:02;;;;;;;6.25;2.63;;;21.50;99.90;;;;;;5030812;28;20274;-84
2022/06/21 10:15:12;;;;;;;4.00;2.05;;;21.50;99.90;;;;;;5051170;28;20211;-83
2022/06/21 10:17:55;;;;;;;3.22;2.13;;;21.40;99.90;;;;;;4999535;28;20715;-82
2022/06/21 10:20:35;;;;;;;6.05;2.78;;;21.50;99.90;;;;;;5052668;28;20179;-82
2022/06/21 10:23:30;;;;;;;4.07;2.50;;;21.60;99.90;;;;;;5052224;28;20182;-82
2022/06/21 10:26:02;;;;;;;3.33;1.98;;;21.70;99.90;;;;;;5016014;28;20210;-83
2022/06/21 10:28:50;;;;;;;4.15;2.00;;;21.70;99.90;;;;;;5052240;28;20179;-83
2022/06/21 10:31:50;;;;;;;3.22;2.00;;;21.80;99.90;;;;;;5051767;28;20589;-83
2022/06/21 10:34:39;;;;;;;4.30;2.47;;;21.50;99.90;;;;;;5036468;28;20289;-83
2022/06/21 10:37:07;;;;;;;5.25;2.28;;;21.50;99.90;;;;;;5036967;28;20156;-83
2022/06/21 10:39:55;;;;;;;3.58;2.30;;;21.50;99.90;;;;;;5052202;28;20179;-83
2022/06/21 10:42:46;;;;;;;4.47;2.35;;;21.40;99.90;;;;;;5052146;28;20163;-83
2022/06/21 10:45:39;;;;;;;2.42;1.90;;;21.50;99.90;;;;;;5053172;28;20206;-83
2022/06/21 10:48:14;;;;;;;5.90;2.60;;;21.60;99.90;;;;;;5052268;28;20258;-83
2022/06/21 10:50:57;;;;;;;4.80;2.15;;;21.70;99.90;;;;;;5037170;28;20209;-83
2022/06/21 10:54:00;;;;;;;10.65;2.78;;;21.90;99.90;;;;;;5036266;28;20546;-83
2022/06/21 11:01:16;;;;;;;4.18;2.28;;;22.20;99.90;;;;;;5041227;28;20677;-83
2022/06/21 11:02:37;;;;;;;6.47;3.20;;;22.60;99.90;;;;;;5041503;28;20265;-83
2022/06/21 11:05:21;;;;;;;6.18;2.20;;;22.50;99.90;;;;;;5058338;28;20694;-83
2022/06/21 11:08:18;;;;;;;4.68;2.60;;;22.70;99.90;;;;;;5056176;28;20167;-83
2022/06/21 11:10:53;;;;;;;3.92;2.28;;;23.00;99.90;;;;;;5056139;28;20225;-83
2022/06/21 11:13:24;;;;;;;3.45;2.35;;;23.40;99.90;;;;;;5056009;28;20195;-83
2022/06/21 11:16:11;;;;;;;5.68;2.63;;;23.70;99.90;;;;;;5056458;28;20202;-83
2022/06/21 11:19:24;;;;;;;3.70;2.53;;;23.80;99.90;;;;;;5054285;28;20196;-83
2022/06/21 11:22:11;;;;;;;5.30;3.10;;;23.90;99.90;;;;;;4997843;28;20649;-83
2022/06/21 11:25:11;;;;;;;7.35;2.50;;;23.90;99.90;;;;;;4997358;28;20211;-83
2022/06/21 11:27:40;;;;;;;5.82;2.80;;;23.90;99.90;;;;;;5034238;28;20197;-83
2022/06/21 11:30:21;;;;;;;3.45;2.35;;;23.70;99.90;;;;;;5054545;28;20602;-83
2022/06/21 11:32:52;;;;;;;6.65;2.85;;;24.00;99.90;;;;;;5054296;28;20186;-83
2022/06/21 11:35:40;;;;;;;5.80;2.67;;;24.20;99.90;;;;;;5054787;28;20199;-83
2022/06/21 11:38:17;;;;;;;3.65;2.38;;;24.10;99.90;;;;;;5054792;28;20171;-83
2022/06/21 11:42:04;;;;;;;6.72;2.10;;;24.50;99.90;;;;;;5056816;28;20175;-83
2022/06/21 11:44:28;;;;;;;4.93;2.20;;;25.00;99.90;;;;;;5039623;28;20179;-83
2022/06/21 11:47:06;;;;;;;4.80;2.17;;;25.10;99.90;;;;;;5055593;28;20643;-83
2022/06/21 11:49:36;;;;;;;4.75;2.38;;;25.20;99.90;;;;;;5056789;28;20179;-84
2022/06/21 11:52:20;;;;;;;4.53;2.20;;;25.40;99.90;;;;;;5055788;28;20655;-84
2022/06/21 11:54:58;;;;;;;4.55;2.28;;;25.50;99.90;;;;;;5056574;28;20233;-83
2022/06/21 11:57:28;;;;;;;3.67;2.10;;;24.70;99.90;;;;;;5040834;28;20543;-84
2022/06/21 12:00:05;;;;;;;4.03;2.20;;;24.60;99.90;;;;;;5042283;28;20616;-84
2022/06/21 12:02:39;;;;;;;4.85;2.55;;;24.50;99.90;;;;;;5043137;28;20503;-84
2022/06/21 12:05:30;;;;;;;4.93;2.33;;;24.30;99.90;;;;;;5058239;28;20235;-84
2022/06/21 12:08:02;;;;;;;4.35;2.53;;;24.20;99.90;;;;;;5043388;28;20640;-84
2022/06/21 12:10:41;;;;;;;5.45;2.28;;;24.40;99.90;;;;;;5057559;28;20208;-84
2022/06/21 12:13:09;;;;;;;2.88;2.10;;;24.20;99.90;;;;;;5056294;28;20203;-84
2022/06/21 12:16:15;;;;;;;4.47;2.45;;;24.30;99.90;;;;;;5058039;28;20683;-84
2022/06/21 12:18:42;;;;;;;4.28;1.98;;;24.20;99.90;;;;;;5056294;28;20175;-84
2022/06/21 12:21:13;;;;;;;4.47;2.22;;;24.10;99.90;;;;;;5056406;28;20674;-84
2022/06/21 12:23:55;;;;;;;4.43;2.30;;;23.90;99.90;;;;;;5059079;28;20186;-84
2022/06/21 12:26:23;;;;;;;3.42;1.90;;;23.40;99.90;;;;;;5065049;28;20202;-84
2022/06/21 12:28:51;;;;;;;4.18;1.98;;;23.00;99.90;;;;;;5068029;28;20179;-84
2022/06/21 12:31:25;;;;;;;2.35;2.03;;;22.90;99.90;;;;;;5060440;28;20562;-84
2022/06/21 12:34:02;;;;;;;4.97;2.10;;;22.60;99.90;;;;;;5058967;28;20226;-84
2022/06/21 12:37:01;;;;;;;2.53;1.92;;;22.40;99.90;;;;;;5058970;28;20200;-83
2022/06/21 12:39:36;;;;;;;3.97;1.95;;;22.40;99.90;;;;;;5034951;28;20219;-83
2022/06/21 12:42:08;;;;;;;3.53;1.88;;;22.30;99.90;;;;;;5055187;28;20178;-83
2022/06/21 12:45:01;;;;;;;4.30;2.00;;;22.30;99.90;;;;;;5055227;28;20199;-83
2022/06/21 12:47:32;;;;;;;4.38;2.00;;;22.30;99.90;;;;;;5055175;28;20191;-83
2022/06/21 12:50:33;;;;;;;4.70;1.80;;;22.80;99.90;;;;;;5054983;28;20547;-83
2022/06/21 12:53:37;;;;;;;4.05;2.15;;;23.40;99.90;;;;;;5054806;28;20689;-83
2022/06/21 12:56:33;;;;;;;4.03;2.10;;;24.00;99.90;;;;;;5053372;28;20267;-83
2022/06/21 12:59:24;;;;;;;3.13;1.95;;;24.90;99.90;;;;;;5052667;28;20225;-81
2022/06/21 13:02:08;;;;;;;3.90;2.08;;;25.70;99.90;;;;;;5052793;28;20274;-81
2022/06/21 13:05:12;;;;;;;3.70;2.00;;;26.50;99.90;;;;;;5037823;28;20253;-81
2022/06/21 13:08:15;;;;;;;4.18;1.60;;;27.00;99.90;;;;;;5014893;28;20656;-81
2022/06/21 13:11:20;;;;;;;3.42;1.65;;;28.00;99.90;;;;;;5053068;28;20218;-81
2022/06/21 13:13:46;;;;;;;3.65;2.28;;;28.30;99.90;;;;;;5057496;28;20301;-82
2022/06/21 13:16:36;;;;;;;3.80;1.90;;;28.10;99.90;;;;;;5039720;28;20187;-81
2022/06/21 13:19:05;;;;;;;4.45;1.90;;;28.00;99.90;;;;;;5057748;28;20171;-81
2022/06/21 13:21:49;;;;;;;4.10;2.00;;;27.70;99.90;;;;;;5056662;28;20179;-81
2022/06/21 13:24:21;;;;;;;7.10;1.90;;;26.90;99.90;;;;;;5055506;28;20195;-82
2022/06/21 13:26:46;;;;;;;3.83;1.80;;;25.90;99.90;;;;;;5053594;28;20545;-82
2022/06/21 13:29:35;;;;;;;4.07;1.98;;;25.50;99.90;;;;;;5053544;28;20225;-81
2022/06/21 13:32:07;;;;;;;2.53;1.88;;;25.00;99.90;;;;;;5034906;28;20182;-81
2022/06/21 13:34:36;;;;;;;3.33;1.65;;;24.50;99.90;;;;;;5036099;28;20203;-81
2022/06/21 13:37:29;;;;;;;5.10;2.13;;;24.50;99.90;;;;;;5052316;28;20213;-81
2022/06/21 13:40:07;;;;;;;3.85;2.25;;;24.30;99.90;;;;;;5053849;28;20206;-81
2022/06/21 13:42:37;;;;;;;7.75;1.95;;;24.50;99.90;;;;;;5054099;28;20181;-82
2022/06/21 13:45:22;;;;;;;2.05;1.80;;;24.80;99.90;;;;;;5054274;28;20211;-81
2022/06/21 13:48:05;;;;;;;4.07;2.10;;;25.50;99.90;;;;;;5037747;28;20231;-81
2022/06/21 13:50:47;;;;;;;3.92;1.88;;;25.80;99.90;;;;;;5054219;28;20175;-81
2022/06/21 13:53:27;;;;;;;2.15;1.50;;;26.20;99.90;;;;;;5055299;28;20198;-81
2022/06/21 13:56:01;;;;;;;3.08;1.70;;;26.30;99.90;;;;;;5054448;28;20199;-81
2022/06/21 13:58:42;;;;;;;4.35;1.90;;;26.00;99.90;;;;;;5038069;28;20159;-82
2022/06/21 14:01:26;;;;;;;3.67;2.15;;;25.60;99.90;;;;;;5037238;28;20170;-81